Ah Gwah Ching, Minnesota
Current Conditions -  °F | °C
As of 12:55 AM on Friday 28 Nov 2014 (Local Time) from KY49 Reporting Station
Light Snow Light Snow  
Wind Chill: -5°   Ceiling: 7500
Heat Index:   Visibility: 10mi
Dew Point:   Wind: 6mph
Humidity: 80%   Direction: 140°SE
Pressure: 30.09"   Gusts: NA
Location:  47.08°N, 94.57°W
Report Text: KY49 280655Z AUTO 14005KT 10SM -SN SCT041 OVC075 M15/M17 A3009 RMK AO2 T11471175
Loading
Personal Weather Stations






























Interactive Weather Map New forecast layout! Learn more

10-Day Weather Forecast

Advertisements
Track Severe Weather on mobile